Terminal Aerodrome Forecast
Issued by NWS Wilmington, OH

Current Version | Previous Version | Text Only | Print | Product List | Glossary Off
Versions: 1 2 3 4 5 6 7 8 9 10 11 12 13 14 15 16 17 18 19 20 21 22 23 24

000
FTUS41 KILN 050200 AAB
TAFCMH
TAF AMD
KCMH 050206Z 0502/0524 32009KT 1 1/2SM -SN BR FEW009 BKN014 OVC027
     FM050400 34010KT 4SM -SN BR OVC019
     FM050700 33010KT P6SM SCT018 OVC060
     FM051300 33010KT P6SM BKN025=

USA.gov is the U.S. government's official web portal to all federal, state and local government web resources and services.